sensor_id;sensor_type;location;lat;lon;timestamp;pressure;altitude;pressure_sealevel;temperature;humidity
19777;BME280;10047;42.490;26.012;2023-05-22T00:00:50;99472.09;;;16.57;100.00
19777;BME280;10047;42.490;26.012;2023-05-22T00:03:20;99385.66;;;16.29;100.00
19777;BME280;10047;42.490;26.012;2023-05-22T00:05:48;99348.56;;;16.21;100.00
19777;BME280;10047;42.490;26.012;2023-05-22T00:08:14;99350.47;;;16.45;100.00
19777;BME280;10047;42.490;26.012;2023-05-22T00:10:41;99273.97;;;16.38;100.00
19777;BME280;10047;42.490;26.012;2023-05-22T00:13:06;99247.19;;;16.15;100.00
19777;BME280;10047;42.490;26.012;2023-05-22T00:15:32;99277.25;;;16.40;100.00
19777;BME280;10047;42.490;26.012;2023-05-22T00:17:58;99235.72;;;16.47;100.00
19777;BME280;10047;42.490;26.012;2023-05-22T00:20:23;99278.53;;;16.86;100.00
19777;BME280;10047;42.490;26.012;2023-05-22T00:22:50;99219.13;;;16.53;100.00
19777;BME280;10047;42.490;26.012;2023-05-22T00:25:18;99224.28;;;16.39;100.00
19777;BME280;10047;42.490;26.012;2023-05-22T00:27:43;99281.66;;;17.04;100.00
19777;BME280;10047;42.490;26.012;2023-05-22T00:30:09;99287.91;;;16.87;100.00
19777;BME280;10047;42.490;26.012;2023-05-22T00:32:35;99241.03;;;16.44;100.00
19777;BME280;10047;42.490;26.012;2023-05-22T00:35:00;99306.59;;;16.89;100.00
19777;BME280;10047;42.490;26.012;2023-05-22T00:37:25;99253.66;;;16.74;100.00
19777;BME280;10047;42.490;26.012;2023-05-22T00:39:51;99336.09;;;17.48;100.00
19777;BME280;10047;42.490;26.012;2023-05-22T00:42:17;99319.13;;;17.33;100.00
19777;BME280;10047;42.490;26.012;2023-05-22T00:44:42;99320.44;;;17.26;100.00
19777;BME280;10047;42.490;26.012;2023-05-22T00:47:08;99400.41;;;17.61;100.00
19777;BME280;10047;42.490;26.012;2023-05-22T00:49:33;99499.16;;;17.83;100.00
19777;BME280;10047;42.490;26.012;2023-05-22T00:51:59;99550.16;;;17.77;100.00
19777;BME280;10047;42.490;26.012;2023-05-22T00:54:25;99538.22;;;17.22;100.00
19777;BME280;10047;42.490;26.012;2023-05-22T00:56:58;99632.63;;;17.33;100.00
19777;BME280;10047;42.490;26.012;2023-05-22T00:59:26;99654.75;;;16.93;100.00
19777;BME280;10047;42.490;26.012;2023-05-22T01:01:51;99642.50;;;16.69;100.00
19777;BME280;10047;42.490;26.012;2023-05-22T01:04:16;99579.91;;;16.27;100.00
19777;BME280;10047;42.490;26.012;2023-05-22T01:06:42;99622.59;;;16.58;100.00
19777;BME280;10047;42.490;26.012;2023-05-22T01:09:13;99623.19;;;16.47;100.00
19777;BME280;10047;42.490;26.012;2023-05-22T01:11:59;99563.03;;;16.23;100.00
19777;BME280;10047;42.490;26.012;2023-05-22T01:31:07;99658.63;;;16.57;100.00
19777;BME280;10047;42.490;26.012;2023-05-22T01:33:47;99603.28;;;16.07;100.00
19777;BME280;10047;42.490;26.012;2023-05-22T01:36:19;99593.38;;;16.01;100.00
19777;BME280;10047;42.490;26.012;2023-05-22T01:38:47;99632.19;;;15.95;100.00
19777;BME280;10047;42.490;26.012;2023-05-22T01:41:13;99639.63;;;16.00;100.00
19777;BME280;10047;42.490;26.012;2023-05-22T01:43:40;99662.53;;;16.32;100.00
19777;BME280;10047;42.490;26.012;2023-05-22T01:46:06;99662.72;;;16.29;100.00
19777;BME280;10047;42.490;26.012;2023-05-22T01:48:32;99657.06;;;16.09;100.00
19777;BME280;10047;42.490;26.012;2023-05-22T01:51:04;99644.13;;;16.26;100.00
19777;BME280;10047;42.490;26.012;2023-05-22T01:56:12;99621.28;;;15.92;100.00
19777;BME280;10047;42.490;26.012;2023-05-22T01:58:47;99558.38;;;15.55;100.00
19777;BME280;10047;42.490;26.012;2023-05-22T02:01:14;99553.16;;;15.72;100.00
19777;BME280;10047;42.490;26.012;2023-05-22T02:03:41;99546.44;;;15.85;100.00
19777;BME280;10047;42.490;26.012;2023-05-22T02:06:09;99523.69;;;15.49;100.00
19777;BME280;10047;42.490;26.012;2023-05-22T02:08:38;99505.38;;;15.71;100.00
19777;BME280;10047;42.490;26.012;2023-05-22T02:11:05;99492.50;;;15.41;100.00
19777;BME280;10047;42.490;26.012;2023-05-22T02:13:32;99435.66;;;15.50;100.00
19777;BME280;10047;42.490;26.012;2023-05-22T02:15:57;99490.66;;;15.89;100.00
19777;BME280;10047;42.490;26.012;2023-05-22T02:18:26;99491.88;;;15.97;100.00
19777;BME280;10047;42.490;26.012;2023-05-22T02:20:59;99495.91;;;15.57;100.00
19777;BME280;10047;42.490;26.012;2023-05-22T02:23:25;99421.94;;;15.51;100.00
19777;BME280;10047;42.490;26.012;2023-05-22T02:25:53;99423.16;;;15.60;100.00
19777;BME280;10047;42.490;26.012;2023-05-22T02:28:20;99408.16;;;15.38;100.00
19777;BME280;10047;42.490;26.012;2023-05-22T02:30:45;99442.81;;;15.59;100.00
19777;BME280;10047;42.490;26.012;2023-05-22T02:33:10;99443.81;;;15.57;100.00
19777;BME280;10047;42.490;26.012;2023-05-22T02:35:36;99426.59;;;15.75;100.00
19777;BME280;10047;42.490;26.012;2023-05-22T02:38:01;99430.00;;;16.03;100.00
19777;BME280;10047;42.490;26.012;2023-05-22T02:40:27;99395.81;;;15.89;100.00
19777;BME280;10047;42.490;26.012;2023-05-22T02:42:53;99423.13;;;15.90;100.00
19777;BME280;10047;42.490;26.012;2023-05-22T02:45:18;99426.97;;;16.11;100.00
19777;BME280;10047;42.490;26.012;2023-05-22T02:47:43;99379.97;;;15.68;100.00
19777;BME280;10047;42.490;26.012;2023-05-22T02:50:09;99377.22;;;15.71;100.00
19777;BME280;10047;42.490;26.012;2023-05-22T02:52:34;99430.84;;;16.18;100.00
19777;BME280;10047;42.490;26.012;2023-05-22T02:55:02;99397.66;;;16.01;100.00
19777;BME280;10047;42.490;26.012;2023-05-22T02:57:28;99448.78;;;16.18;100.00
19777;BME280;10047;42.490;26.012;2023-05-22T02:59:54;99449.22;;;15.96;100.00
19777;BME280;10047;42.490;26.012;2023-05-22T03:02:19;99461.03;;;16.13;100.00
19777;BME280;10047;42.490;26.012;2023-05-22T03:04:44;99453.63;;;16.22;100.00
19777;BME280;10047;42.490;26.012;2023-05-22T03:07:10;99474.81;;;16.26;100.00
19777;BME280;10047;42.490;26.012;2023-05-22T03:09:36;99425.69;;;15.90;100.00
19777;BME280;10047;42.490;26.012;2023-05-22T03:12:02;99451.69;;;15.98;100.00
19777;BME280;10047;42.490;26.012;2023-05-22T03:14:29;99489.94;;;15.73;100.00
19777;BME280;10047;42.490;26.012;2023-05-22T03:16:55;99445.88;;;15.66;100.00
19777;BME280;10047;42.490;26.012;2023-05-22T03:19:21;99476.81;;;15.47;100.00
19777;BME280;10047;42.490;26.012;2023-05-22T03:21:46;99376.69;;;14.91;100.00
19777;BME280;10047;42.490;26.012;2023-05-22T03:24:14;99470.53;;;15.37;100.00
19777;BME280;10047;42.490;26.012;2023-05-22T03:26:40;99377.84;;;15.01;100.00
19777;BME280;10047;42.490;26.012;2023-05-22T03:29:06;99453.22;;;15.42;100.00
19777;BME280;10047;42.490;26.012;2023-05-22T03:31:32;99458.44;;;15.85;100.00
19777;BME280;10047;42.490;26.012;2023-05-22T03:33:58;99474.06;;;15.66;100.00
19777;BME280;10047;42.490;26.012;2023-05-22T03:36:23;99377.50;;;15.95;100.00
19777;BME280;10047;42.490;26.012;2023-05-22T03:38:50;99475.88;;;16.08;100.00
19777;BME280;10047;42.490;26.012;2023-05-22T03:41:16;99408.88;;;15.56;100.00
19777;BME280;10047;42.490;26.012;2023-05-22T03:43:41;99438.84;;;15.84;100.00
19777;BME280;10047;42.490;26.012;2023-05-22T03:46:07;99454.72;;;15.90;100.00
19777;BME280;10047;42.490;26.012;2023-05-22T03:48:33;99523.84;;;16.35;100.00
19777;BME280;10047;42.490;26.012;2023-05-22T03:50:58;99457.34;;;15.89;100.00
19777;BME280;10047;42.490;26.012;2023-05-22T03:53:24;99495.16;;;16.43;100.00
19777;BME280;10047;42.490;26.012;2023-05-22T03:55:49;99507.97;;;16.43;100.00
19777;BME280;10047;42.490;26.012;2023-05-22T03:58:15;99506.97;;;16.31;100.00
19777;BME280;10047;42.490;26.012;2023-05-22T04:00:41;99571.47;;;16.83;100.00
19777;BME280;10047;42.490;26.012;2023-05-22T04:03:07;99588.72;;;16.81;100.00
19777;BME280;10047;42.490;26.012;2023-05-22T04:05:38;99558.25;;;16.61;100.00
19777;BME280;10047;42.490;26.012;2023-05-22T04:08:03;99596.41;;;16.95;100.00
19777;BME280;10047;42.490;26.012;2023-05-22T04:10:29;99589.72;;;16.79;100.00
19777;BME280;10047;42.490;26.012;2023-05-22T04:12:56;99553.97;;;16.46;100.00
19777;BME280;10047;42.490;26.012;2023-05-22T04:15:21;99565.41;;;16.84;100.00
19777;BME280;10047;42.490;26.012;2023-05-22T04:17:48;99579.69;;;17.02;100.00
19777;BME280;10047;42.490;26.012;2023-05-22T04:20:14;99634.28;;;17.20;100.00
19777;BME280;10047;42.490;26.012;2023-05-22T04:22:39;99609.78;;;17.28;100.00
19777;BME280;10047;42.490;26.012;2023-05-22T04:25:06;99651.59;;;17.45;100.00
19777;BME280;10047;42.490;26.012;2023-05-22T04:27:31;99626.41;;;17.09;100.00
19777;BME280;10047;42.490;26.012;2023-05-22T04:29:59;99669.41;;;17.48;100.00
19777;BME280;10047;42.490;26.012;2023-05-22T04:32:24;99695.13;;;17.62;100.00
19777;BME280;10047;42.490;26.012;2023-05-22T04:34:50;99688.50;;;17.44;100.00
19777;BME280;10047;42.490;26.012;2023-05-22T04:37:17;99756.81;;;17.90;100.00
19777;BME280;10047;42.490;26.012;2023-05-22T04:39:44;99739.75;;;17.61;100.00
19777;BME280;10047;42.490;26.012;2023-05-22T04:42:13;99810.25;;;17.71;100.00
19777;BME280;10047;42.490;26.012;2023-05-22T04:44:40;99785.63;;;17.95;100.00
19777;BME280;10047;42.490;26.012;2023-05-22T04:47:07;99800.91;;;17.84;100.00
19777;BME280;10047;42.490;26.012;2023-05-22T04:49:44;99799.28;;;17.69;100.00
19777;BME280;10047;42.490;26.012;2023-05-22T04:52:10;99873.38;;;18.18;100.00
19777;BME280;10047;42.490;26.012;2023-05-22T04:54:36;99855.94;;;17.81;100.00
19777;BME280;10047;42.490;26.012;2023-05-22T04:57:07;99892.03;;;17.80;100.00
19777;BME280;10047;42.490;26.012;2023-05-22T04:59:35;99809.28;;;17.29;100.00
19777;BME280;10047;42.490;26.012;2023-05-22T05:02:07;99829.69;;;17.32;100.00
19777;BME280;10047;42.490;26.012;2023-05-22T05:04:32;99865.84;;;17.87;100.00
19777;BME280;10047;42.490;26.012;2023-05-22T05:06:58;99766.81;;;17.38;100.00
19777;BME280;10047;42.490;26.012;2023-05-22T05:09:23;99842.22;;;17.53;100.00
19777;BME280;10047;42.490;26.012;2023-05-22T05:11:50;99762.13;;;17.45;100.00
19777;BME280;10047;42.490;26.012;2023-05-22T05:14:16;99831.88;;;17.96;100.00
19777;BME280;10047;42.490;26.012;2023-05-22T05:16:42;99831.31;;;18.05;100.00
19777;BME280;10047;42.490;26.012;2023-05-22T05:19:07;99726.97;;;17.31;100.00
19777;BME280;10047;42.490;26.012;2023-05-22T05:21:33;99791.63;;;17.53;100.00
19777;BME280;10047;42.490;26.012;2023-05-22T05:23:59;99748.47;;;17.72;100.00
19777;BME280;10047;42.490;26.012;2023-05-22T05:26:24;99777.38;;;18.04;100.00
19777;BME280;10047;42.490;26.012;2023-05-22T05:28:51;99717.13;;;17.80;100.00
19777;BME280;10047;42.490;26.012;2023-05-22T05:31:17;99767.38;;;17.85;100.00
19777;BME280;10047;42.490;26.012;2023-05-22T05:33:43;99767.78;;;18.20;100.00
19777;BME280;10047;42.490;26.012;2023-05-22T05:36:09;99716.88;;;17.84;100.00
19777;BME280;10047;42.490;26.012;2023-05-22T05:38:34;99698.88;;;17.84;100.00
19777;BME280;10047;42.490;26.012;2023-05-22T05:41:00;99771.97;;;18.35;100.00
19777;BME280;10047;42.490;26.012;2023-05-22T05:43:25;99778.06;;;18.61;100.00
19777;BME280;10047;42.490;26.012;2023-05-22T05:45:50;99784.19;;;18.46;100.00
19777;BME280;10047;42.490;26.012;2023-05-22T05:48:16;99741.38;;;18.16;100.00
19777;BME280;10047;42.490;26.012;2023-05-22T05:50:41;99797.81;;;18.60;100.00
19777;BME280;10047;42.490;26.012;2023-05-22T05:53:07;99820.50;;;18.41;100.00
19777;BME280;10047;42.490;26.012;2023-05-22T05:55:32;99811.56;;;18.33;100.00
19777;BME280;10047;42.490;26.012;2023-05-22T05:57:58;99835.72;;;18.58;100.00
19777;BME280;10047;42.490;26.012;2023-05-22T06:00:24;99857.06;;;18.87;100.00
19777;BME280;10047;42.490;26.012;2023-05-22T06:02:49;99851.25;;;18.71;100.00
19777;BME280;10047;42.490;26.012;2023-05-22T06:05:14;99861.63;;;18.96;100.00
19777;BME280;10047;42.490;26.012;2023-05-22T06:07:43;99869.97;;;18.99;100.00
19777;BME280;10047;42.490;26.012;2023-05-22T06:10:09;99825.81;;;18.52;100.00
19777;BME280;10047;42.490;26.012;2023-05-22T06:12:35;99868.94;;;18.89;100.00
19777;BME280;10047;42.490;26.012;2023-05-22T06:15:02;99818.44;;;18.87;100.00
19777;BME280;10047;42.490;26.012;2023-05-22T06:17:29;99881.00;;;19.28;100.00
19777;BME280;10047;42.490;26.012;2023-05-22T06:19:54;99818.94;;;18.92;100.00
19777;BME280;10047;42.490;26.012;2023-05-22T06:22:20;99824.06;;;19.19;100.00
19777;BME280;10047;42.490;26.012;2023-05-22T06:24:46;99860.00;;;18.95;100.00
19777;BME280;10047;42.490;26.012;2023-05-22T06:27:11;99848.75;;;18.96;100.00
19777;BME280;10047;42.490;26.012;2023-05-22T06:29:36;99890.19;;;19.32;100.00
19777;BME280;10047;42.490;26.012;2023-05-22T06:32:02;99878.09;;;19.47;100.00
19777;BME280;10047;42.490;26.012;2023-05-22T06:34:27;99911.56;;;19.34;100.00
19777;BME280;10047;42.490;26.012;2023-05-22T06:36:53;99906.22;;;19.11;100.00
19777;BME280;10047;42.490;26.012;2023-05-22T06:39:19;99925.19;;;19.88;100.00
19777;BME280;10047;42.490;26.012;2023-05-22T06:41:45;99898.84;;;19.83;100.00
19777;BME280;10047;42.490;26.012;2023-05-22T06:44:10;99933.63;;;19.77;100.00
19777;BME280;10047;42.490;26.012;2023-05-22T06:46:37;100016.22;;;20.91;100.00
19777;BME280;10047;42.490;26.012;2023-05-22T06:49:02;100036.75;;;20.31;100.00
19777;BME280;10047;42.490;26.012;2023-05-22T06:51:28;100055.00;;;20.91;100.00
19777;BME280;10047;42.490;26.012;2023-05-22T06:53:53;100060.06;;;20.92;100.00
19777;BME280;10047;42.490;26.012;2023-05-22T06:56:19;100087.78;;;20.65;100.00
19777;BME280;10047;42.490;26.012;2023-05-22T06:58:44;100112.13;;;20.23;100.00
19777;BME280;10047;42.490;26.012;2023-05-22T07:01:10;100165.69;;;21.23;100.00
19777;BME280;10047;42.490;26.012;2023-05-22T07:03:35;100195.75;;;21.12;100.00
19777;BME280;10047;42.490;26.012;2023-05-22T07:06:01;100197.81;;;20.94;100.00
19777;BME280;10047;42.490;26.012;2023-05-22T07:08:27;100226.47;;;21.04;100.00
19777;BME280;10047;42.490;26.012;2023-05-22T07:10:52;100226.53;;;20.77;100.00
19777;BME280;10047;42.490;26.012;2023-05-22T07:13:18;100277.84;;;20.56;100.00
19777;BME280;10047;42.490;26.012;2023-05-22T07:15:44;100308.84;;;21.47;100.00
19777;BME280;10047;42.490;26.012;2023-05-22T07:18:10;100358.56;;;21.78;100.00
19777;BME280;10047;42.490;26.012;2023-05-22T07:20:36;100411.91;;;21.80;100.00
19777;BME280;10047;42.490;26.012;2023-05-22T07:23:02;100578.56;;;22.56;100.00
19777;BME280;10047;42.490;26.012;2023-05-22T07:25:28;100699.06;;;22.51;100.00
19777;BME280;10047;42.490;26.012;2023-05-22T07:27:53;100857.47;;;22.87;100.00
19777;BME280;10047;42.490;26.012;2023-05-22T07:30:20;101137.44;;;22.76;100.00
19777;BME280;10047;42.490;26.012;2023-05-22T07:32:46;101475.03;;;23.15;100.00
19777;BME280;10047;42.490;26.012;2023-05-22T07:35:12;101848.28;;;23.43;100.00
19777;BME280;10047;42.490;26.012;2023-05-22T07:37:37;102078.56;;;22.48;100.00
19777;BME280;10047;42.490;26.012;2023-05-22T07:40:04;102343.16;;;23.09;100.00
19777;BME280;10047;42.490;26.012;2023-05-22T07:42:31;103560.91;;;23.46;100.00
19777;BME280;10047;42.490;26.012;2023-05-22T07:44:57;103798.47;;;22.89;100.00
19777;BME280;10047;42.490;26.012;2023-05-22T07:47:22;103985.22;;;23.01;100.00
19777;BME280;10047;42.490;26.012;2023-05-22T07:49:47;104327.91;;;23.11;100.00
19777;BME280;10047;42.490;26.012;2023-05-22T07:52:13;104558.84;;;23.49;100.00
19777;BME280;10047;42.490;26.012;2023-05-22T07:54:38;104608.50;;;22.98;100.00
19777;BME280;10047;42.490;26.012;2023-05-22T07:57:04;104773.03;;;22.91;100.00
19777;BME280;10047;42.490;26.012;2023-05-22T07:59:29;104992.06;;;22.97;100.00
19777;BME280;10047;42.490;26.012;2023-05-22T08:01:55;104987.72;;;22.92;100.00
19777;BME280;10047;42.490;26.012;2023-05-22T08:04:20;104966.97;;;23.19;100.00
19777;BME280;10047;42.490;26.012;2023-05-22T08:06:46;104892.47;;;23.00;100.00
19777;BME280;10047;42.490;26.012;2023-05-22T08:09:12;104920.03;;;23.79;100.00
19777;BME280;10047;42.490;26.012;2023-05-22T08:11:37;104532.19;;;23.18;100.00
19777;BME280;10047;42.490;26.012;2023-05-22T08:14:06;104408.69;;;22.83;100.00
19777;BME280;10047;42.490;26.012;2023-05-22T08:16:31;104057.31;;;22.84;100.00
19777;BME280;10047;42.490;26.012;2023-05-22T08:18:57;103725.81;;;22.86;100.00
19777;BME280;10047;42.490;26.012;2023-05-22T08:21:22;103746.31;;;23.45;100.00
19777;BME280;10047;42.490;26.012;2023-05-22T08:23:48;103701.25;;;23.02;100.00
19777;BME280;10047;42.490;26.012;2023-05-22T08:26:14;103663.19;;;22.60;100.00
19777;BME280;10047;42.490;26.012;2023-05-22T08:28:39;103614.56;;;22.69;100.00
19777;BME280;10047;42.490;26.012;2023-05-22T08:31:11;103704.03;;;23.37;100.00
19777;BME280;10047;42.490;26.012;2023-05-22T08:33:37;103620.59;;;22.70;100.00
19777;BME280;10047;42.490;26.012;2023-05-22T08:36:02;103600.50;;;22.79;100.00
19777;BME280;10047;42.490;26.012;2023-05-22T08:38:28;103679.94;;;23.27;100.00
19777;BME280;10047;42.490;26.012;2023-05-22T08:40:53;103688.28;;;23.03;100.00
19777;BME280;10047;42.490;26.012;2023-05-22T08:43:22;103883.72;;;24.03;100.00
19777;BME280;10047;42.490;26.012;2023-05-22T08:45:59;103900.28;;;24.39;100.00
19777;BME280;10047;42.490;26.012;2023-05-22T08:48:28;105060.13;;;24.85;100.00
19777;BME280;10047;42.490;26.012;2023-05-22T08:50:57;104502.28;;;25.58;100.00
19777;BME280;10047;42.490;26.012;2023-05-22T08:53:23;104143.59;;;25.43;100.00
19777;BME280;10047;42.490;26.012;2023-05-22T08:55:53;103851.94;;;25.31;100.00
19777;BME280;10047;42.490;26.012;2023-05-22T08:58:20;103635.72;;;25.82;100.00
19777;BME280;10047;42.490;26.012;2023-05-22T09:00:46;103368.72;;;25.12;100.00
19777;BME280;10047;42.490;26.012;2023-05-22T09:03:12;103244.22;;;24.97;100.00
19777;BME280;10047;42.490;26.012;2023-05-22T09:05:39;103001.88;;;23.83;100.00
19777;BME280;10047;42.490;26.012;2023-05-22T09:08:06;102900.69;;;24.25;100.00
19777;BME280;10047;42.490;26.012;2023-05-22T09:10:35;102758.88;;;24.58;100.00
19777;BME280;10047;42.490;26.012;2023-05-22T09:15:31;102583.31;;;25.39;100.00
19777;BME280;10047;42.490;26.012;2023-05-22T09:17:58;102371.28;;;25.42;100.00
19777;BME280;10047;42.490;26.012;2023-05-22T09:20:24;102207.63;;;25.48;100.00
19777;BME280;10047;42.490;26.012;2023-05-22T09:22:49;102032.66;;;24.45;100.00
19777;BME280;10047;42.490;26.012;2023-05-22T09:25:19;102172.56;;;25.69;100.00
19777;BME280;10047;42.490;26.012;2023-05-22T09:27:46;102210.50;;;25.75;100.00
19777;BME280;10047;42.490;26.012;2023-05-22T09:30:21;102269.47;;;25.12;100.00
19777;BME280;10047;42.490;26.012;2023-05-22T09:32:49;102260.97;;;24.40;100.00
19777;BME280;10047;42.490;26.012;2023-05-22T09:35:15;102286.50;;;25.83;100.00
19777;BME280;10047;42.490;26.012;2023-05-22T09:37:40;102183.81;;;26.31;100.00
19777;BME280;10047;42.490;26.012;2023-05-22T09:40:07;102057.34;;;26.08;100.00
19777;BME280;10047;42.490;26.012;2023-05-22T09:42:35;101873.06;;;26.62;100.00
19777;BME280;10047;42.490;26.012;2023-05-22T09:45:02;101667.75;;;26.48;100.00
19777;BME280;10047;42.490;26.012;2023-05-22T09:47:28;101401.53;;;26.25;100.00
19777;BME280;10047;42.490;26.012;2023-05-22T09:49:56;101222.00;;;26.77;100.00
19777;BME280;10047;42.490;26.012;2023-05-22T09:52:22;100973.88;;;26.12;100.00
19777;BME280;10047;42.490;26.012;2023-05-22T09:54:52;100787.47;;;25.62;100.00
19777;BME280;10047;42.490;26.012;2023-05-22T09:57:21;100613.25;;;25.69;100.00
19777;BME280;10047;42.490;26.012;2023-05-22T09:59:50;100501.13;;;26.42;100.00
19777;BME280;10047;42.490;26.012;2023-05-22T10:02:21;100326.66;;;25.07;100.00
19777;BME280;10047;42.490;26.012;2023-05-22T10:04:47;100273.88;;;25.46;100.00
19777;BME280;10047;42.490;26.012;2023-05-22T10:07:21;100183.66;;;25.95;100.00
19777;BME280;10047;42.490;26.012;2023-05-22T10:09:50;100133.09;;;26.91;100.00
19777;BME280;10047;42.490;26.012;2023-05-22T10:12:19;100070.28;;;26.46;100.00
19777;BME280;10047;42.490;26.012;2023-05-22T10:14:46;99959.38;;;26.42;100.00
19777;BME280;10047;42.490;26.012;2023-05-22T10:17:12;99958.50;;;25.59;100.00
19777;BME280;10047;42.490;26.012;2023-05-22T10:19:41;99929.06;;;25.95;100.00
19777;BME280;10047;42.490;26.012;2023-05-22T10:22:07;99889.88;;;26.24;100.00
19777;BME280;10047;42.490;26.012;2023-05-22T10:24:33;99934.09;;;26.80;100.00
19777;BME280;10047;42.490;26.012;2023-05-22T10:26:58;99895.03;;;27.66;100.00
19777;BME280;10047;42.490;26.012;2023-05-22T10:29:35;99900.47;;;27.47;100.00
19777;BME280;10047;42.490;26.012;2023-05-22T10:32:08;99877.19;;;27.36;100.00
19777;BME280;10047;42.490;26.012;2023-05-22T10:34:53;99864.34;;;26.72;100.00
19777;BME280;10047;42.490;26.012;2023-05-22T10:40:13;99880.91;;;26.36;100.00
19777;BME280;10047;42.490;26.012;2023-05-22T10:42:39;99840.31;;;25.97;100.00
19777;BME280;10047;42.490;26.012;2023-05-22T10:45:09;99820.59;;;26.21;100.00
19777;BME280;10047;42.490;26.012;2023-05-22T10:47:35;99859.34;;;27.14;100.00
19777;BME280;10047;42.490;26.012;2023-05-22T10:50:09;99879.53;;;26.59;100.00
19777;BME280;10047;42.490;26.012;2023-05-22T10:52:36;99824.81;;;25.58;100.00
19777;BME280;10047;42.490;26.012;2023-05-22T10:55:08;99911.56;;;25.78;100.00
19777;BME280;10047;42.490;26.012;2023-05-22T10:57:37;99893.91;;;24.37;100.00
19777;BME280;10047;42.490;26.012;2023-05-22T11:00:11;99938.19;;;24.56;100.00
19777;BME280;10047;42.490;26.012;2023-05-22T11:02:41;100135.88;;;23.05;100.00
19777;BME280;10047;42.490;26.012;2023-05-22T11:10:56;100852.75;;;20.81;100.00
19777;BME280;10047;42.490;26.012;2023-05-22T11:13:25;101069.47;;;20.72;100.00
19777;BME280;10047;42.490;26.012;2023-05-22T11:15:53;101317.09;;;20.66;100.00
19777;BME280;10047;42.490;26.012;2023-05-22T11:18:19;101829.50;;;20.54;100.00
19777;BME280;10047;42.490;26.012;2023-05-22T11:20:45;103076.38;;;21.00;100.00
19777;BME280;10047;42.490;26.012;2023-05-22T11:23:10;104088.88;;;21.53;100.00
19777;BME280;10047;42.490;26.012;2023-05-22T11:25:38;103871.84;;;21.83;100.00
19777;BME280;10047;42.490;26.012;2023-05-22T11:28:05;102325.00;;;21.30;100.00
19777;BME280;10047;42.490;26.012;2023-05-22T11:30:32;102778.09;;;21.27;100.00
19777;BME280;10047;42.490;26.012;2023-05-22T11:32:59;104081.75;;;22.66;100.00
19777;BME280;10047;42.490;26.012;2023-05-22T11:35:27;104102.06;;;23.01;100.00
19777;BME280;10047;42.490;26.012;2023-05-22T11:37:53;104395.63;;;24.41;100.00
19777;BME280;10047;42.490;26.012;2023-05-22T11:40:21;104275.34;;;24.22;100.00
19777;BME280;10047;42.490;26.012;2023-05-22T11:42:48;104101.28;;;24.08;100.00
19777;BME280;10047;42.490;26.012;2023-05-22T11:45:14;103816.13;;;23.62;100.00
19777;BME280;10047;42.490;26.012;2023-05-22T11:47:39;103723.72;;;24.88;100.00
19777;BME280;10047;42.490;26.012;2023-05-22T11:50:09;103393.66;;;24.39;100.00
19777;BME280;10047;42.490;26.012;2023-05-22T11:52:37;102610.88;;;24.69;100.00
19777;BME280;10047;42.490;26.012;2023-05-22T11:55:03;102847.59;;;24.52;100.00
19777;BME280;10047;42.490;26.012;2023-05-22T11:57:29;102996.81;;;24.97;100.00
19777;BME280;10047;42.490;26.012;2023-05-22T11:59:56;104665.81;;;24.89;100.00
19777;BME280;10047;42.490;26.012;2023-05-22T12:02:22;104467.25;;;25.22;100.00
19777;BME280;10047;42.490;26.012;2023-05-22T12:04:52;104089.47;;;25.54;100.00
19777;BME280;10047;42.490;26.012;2023-05-22T12:07:18;103747.94;;;25.53;100.00
19777;BME280;10047;42.490;26.012;2023-05-22T12:09:43;103472.91;;;25.12;100.00
19777;BME280;10047;42.490;26.012;2023-05-22T12:12:09;103244.59;;;25.79;100.00
19777;BME280;10047;42.490;26.012;2023-05-22T12:14:45;102739.44;;;26.00;100.00
19777;BME280;10047;42.490;26.012;2023-05-22T12:17:12;101974.03;;;25.47;100.00
19777;BME280;10047;42.490;26.012;2023-05-22T12:19:41;101377.38;;;24.55;100.00
19777;BME280;10047;42.490;26.012;2023-05-22T12:22:08;100943.06;;;24.04;100.00
19777;BME280;10047;42.490;26.012;2023-05-22T12:24:44;100844.31;;;23.79;100.00
19777;BME280;10047;42.490;26.012;2023-05-22T12:27:13;100841.78;;;23.15;100.00
19777;BME280;10047;42.490;26.012;2023-05-22T12:29:39;100868.91;;;22.97;100.00
19777;BME280;10047;42.490;26.012;2023-05-22T12:32:07;101012.38;;;22.85;100.00
19777;BME280;10047;42.490;26.012;2023-05-22T12:34:45;101048.56;;;22.30;100.00
19777;BME280;10047;42.490;26.012;2023-05-22T12:37:22;101216.81;;;22.03;100.00
19777;BME280;10047;42.490;26.012;2023-05-22T12:40:00;101497.88;;;22.29;100.00
19777;BME280;10047;42.490;26.012;2023-05-22T12:42:26;101678.94;;;22.54;100.00
19777;BME280;10047;42.490;26.012;2023-05-22T12:44:53;101728.13;;;22.38;100.00
19777;BME280;10047;42.490;26.012;2023-05-22T12:47:19;101650.78;;;22.12;100.00
19777;BME280;10047;42.490;26.012;2023-05-22T12:49:44;101622.00;;;22.85;100.00
19777;BME280;10047;42.490;26.012;2023-05-22T12:52:10;101504.31;;;22.86;100.00
19777;BME280;10047;42.490;26.012;2023-05-22T12:54:35;101296.81;;;22.55;100.00
19777;BME280;10047;42.490;26.012;2023-05-22T12:57:01;101187.72;;;22.73;100.00
19777;BME280;10047;42.490;26.012;2023-05-22T12:59:26;101058.75;;;23.17;100.00
19777;BME280;10047;42.490;26.012;2023-05-22T13:01:52;100910.59;;;23.47;100.00
19777;BME280;10047;42.490;26.012;2023-05-22T13:04:17;100660.84;;;22.27;100.00